sensor_id;sensor_type;location;lat;lon;timestamp;pressure;altitude;pressure_sealevel;temperature;humidity
19510;BME280;9896;42.486;26.506;2023-02-15T00:00:27;101067.03;;;4.83;76.03
19510;BME280;9896;42.486;26.506;2023-02-15T00:02:52;101060.31;;;4.79;75.37
19510;BME280;9896;42.486;26.506;2023-02-15T00:05:18;101063.25;;;4.85;75.25
19510;BME280;9896;42.486;26.506;2023-02-15T00:07:43;101060.31;;;4.88;75.15
19510;BME280;9896;42.486;26.506;2023-02-15T00:10:09;101056.81;;;4.88;75.54
19510;BME280;9896;42.486;26.506;2023-02-15T00:12:37;101060.47;;;4.96;74.26
19510;BME280;9896;42.486;26.506;2023-02-15T00:15:02;101058.34;;;4.90;74.51
19510;BME280;9896;42.486;26.506;2023-02-15T00:17:28;101056.25;;;4.94;74.50
19510;BME280;9896;42.486;26.506;2023-02-15T00:19:54;101060.47;;;4.96;74.12
19510;BME280;9896;42.486;26.506;2023-02-15T00:22:20;101042.28;;;4.82;74.19
19510;BME280;9896;42.486;26.506;2023-02-15T00:24:45;101056.41;;;4.92;73.95
19510;BME280;9896;42.486;26.506;2023-02-15T00:27:11;101041.84;;;4.87;73.59
19510;BME280;9896;42.486;26.506;2023-02-15T00:29:37;101053.31;;;4.87;73.93
19510;BME280;9896;42.486;26.506;2023-02-15T00:32:03;101062.69;;;4.91;74.03
19510;BME280;9896;42.486;26.506;2023-02-15T00:34:28;101055.44;;;4.84;74.28
19510;BME280;9896;42.486;26.506;2023-02-15T00:36:54;101056.97;;;4.86;74.17
19510;BME280;9896;42.486;26.506;2023-02-15T00:39:20;101061.00;;;4.90;73.89
19510;BME280;9896;42.486;26.506;2023-02-15T00:41:46;101061.84;;;4.91;73.34
19510;BME280;9896;42.486;26.506;2023-02-15T00:44:14;101050.66;;;4.87;73.13
19510;BME280;9896;42.486;26.506;2023-02-15T00:46:40;101049.69;;;4.79;73.92
19510;BME280;9896;42.486;26.506;2023-02-15T00:49:05;101053.06;;;4.81;73.85
19510;BME280;9896;42.486;26.506;2023-02-15T00:51:32;101052.22;;;4.80;74.00
19510;BME280;9896;42.486;26.506;2023-02-15T00:53:57;101048.59;;;4.72;74.37
19510;BME280;9896;42.486;26.506;2023-02-15T00:56:23;101030.28;;;4.59;74.91
19510;BME280;9896;42.486;26.506;2023-02-15T00:58:48;101050.41;;;4.71;74.26
19510;BME280;9896;42.486;26.506;2023-02-15T01:01:16;101039.22;;;4.67;75.08
19510;BME280;9896;42.486;26.506;2023-02-15T01:03:42;101050.28;;;4.73;74.75
19510;BME280;9896;42.486;26.506;2023-02-15T01:06:09;101026.91;;;4.76;73.79
19510;BME280;9896;42.486;26.506;2023-02-15T01:08:37;101042.69;;;4.78;73.87
19510;BME280;9896;42.486;26.506;2023-02-15T01:11:07;101039.50;;;4.74;73.65
19510;BME280;9896;42.486;26.506;2023-02-15T01:13:34;101037.25;;;4.69;74.01
19510;BME280;9896;42.486;26.506;2023-02-15T01:16:01;101041.47;;;4.62;74.68
19510;BME280;9896;42.486;26.506;2023-02-15T01:18:27;101038.78;;;4.53;74.73
19510;BME280;9896;42.486;26.506;2023-02-15T01:20:53;101033.63;;;4.51;75.48
19510;BME280;9896;42.486;26.506;2023-02-15T01:23:18;101047.16;;;4.48;75.04
19510;BME280;9896;42.486;26.506;2023-02-15T01:25:44;101042.44;;;4.42;75.48
19510;BME280;9896;42.486;26.506;2023-02-15T01:28:10;101044.25;;;4.42;75.44
19510;BME280;9896;42.486;26.506;2023-02-15T01:30:35;101043.94;;;4.26;76.22
19510;BME280;9896;42.486;26.506;2023-02-15T01:33:01;101043.41;;;4.22;77.07
19510;BME280;9896;42.486;26.506;2023-02-15T01:35:27;101038.91;;;4.03;77.03
19510;BME280;9896;42.486;26.506;2023-02-15T01:37:54;101048.91;;;4.00;78.33
19510;BME280;9896;42.486;26.506;2023-02-15T01:40:20;101046.59;;;4.06;77.41
19510;BME280;9896;42.486;26.506;2023-02-15T01:42:50;101048.69;;;4.03;77.49
19510;BME280;9896;42.486;26.506;2023-02-15T01:47:58;101047.59;;;4.15;77.55
19510;BME280;9896;42.486;26.506;2023-02-15T01:50:31;101046.03;;;4.22;76.82
19510;BME280;9896;42.486;26.506;2023-02-15T01:56:15;101047.28;;;4.18;76.35
19510;BME280;9896;42.486;26.506;2023-02-15T01:58:43;101034.72;;;4.10;76.97
19510;BME280;9896;42.486;26.506;2023-02-15T02:01:08;101045.06;;;4.13;77.21
19510;BME280;9896;42.486;26.506;2023-02-15T02:06:05;101049.75;;;3.91;78.02
19510;BME280;9896;42.486;26.506;2023-02-15T02:08:31;101052.53;;;3.89;78.45
19510;BME280;9896;42.486;26.506;2023-02-15T02:10:57;101055.16;;;3.80;79.53
19510;BME280;9896;42.486;26.506;2023-02-15T02:13:22;101051.53;;;3.81;79.36
19510;BME280;9896;42.486;26.506;2023-02-15T02:16:04;101068.00;;;3.74;79.70
19510;BME280;9896;42.486;26.506;2023-02-15T02:27:22;101058.44;;;3.32;80.76
19510;BME280;9896;42.486;26.506;2023-02-15T02:45:08;101072.03;;;3.18;81.94
19510;BME280;9896;42.486;26.506;2023-02-15T02:47:52;101078.34;;;3.26;81.68
19510;BME280;9896;42.486;26.506;2023-02-15T02:50:25;101070.75;;;3.12;82.30
19510;BME280;9896;42.486;26.506;2023-02-15T02:52:53;101076.75;;;3.14;82.32
19510;BME280;9896;42.486;26.506;2023-02-15T03:00:35;101083.22;;;3.21;81.93
19510;BME280;9896;42.486;26.506;2023-02-15T03:03:09;101085.63;;;3.24;81.98
19510;BME280;9896;42.486;26.506;2023-02-15T03:05:41;101094.06;;;3.18;82.56
19510;BME280;9896;42.486;26.506;2023-02-15T03:08:08;101100.34;;;3.17;82.54
19510;BME280;9896;42.486;26.506;2023-02-15T03:10:36;101100.16;;;3.09;82.37
19510;BME280;9896;42.486;26.506;2023-02-15T03:13:04;101115.78;;;2.92;83.45
19510;BME280;9896;42.486;26.506;2023-02-15T03:15:35;101112.41;;;2.90;83.84
19510;BME280;9896;42.486;26.506;2023-02-15T03:18:25;101107.75;;;2.82;84.43
19510;BME280;9896;42.486;26.506;2023-02-15T03:20:54;101111.25;;;2.83;84.14
19510;BME280;9896;42.486;26.506;2023-02-15T03:23:23;101112.19;;;2.81;84.74
19510;BME280;9896;42.486;26.506;2023-02-15T03:25:56;101116.75;;;2.91;84.15
19510;BME280;9896;42.486;26.506;2023-02-15T03:28:31;101119.13;;;2.73;84.75
19510;BME280;9896;42.486;26.506;2023-02-15T03:31:02;101122.72;;;2.72;85.51
19510;BME280;9896;42.486;26.506;2023-02-15T03:33:30;101126.00;;;2.64;85.18
19510;BME280;9896;42.486;26.506;2023-02-15T03:36:20;101135.19;;;2.60;85.59
19510;BME280;9896;42.486;26.506;2023-02-15T03:39:10;101129.25;;;2.68;85.52
19510;BME280;9896;42.486;26.506;2023-02-15T03:41:44;101135.13;;;2.71;86.00
19510;BME280;9896;42.486;26.506;2023-02-15T03:44:18;101136.28;;;2.78;85.19
19510;BME280;9896;42.486;26.506;2023-02-15T03:46:51;101133.00;;;2.86;84.42
19510;BME280;9896;42.486;26.506;2023-02-15T03:49:24;101139.34;;;2.95;84.75
19510;BME280;9896;42.486;26.506;2023-02-15T03:51:53;101142.38;;;2.90;84.37
19510;BME280;9896;42.486;26.506;2023-02-15T03:54:26;101146.28;;;3.07;84.26
19510;BME280;9896;42.486;26.506;2023-02-15T03:57:12;101141.84;;;3.07;83.90
19510;BME280;9896;42.486;26.506;2023-02-15T03:59:57;101136.50;;;2.87;84.72
19510;BME280;9896;42.486;26.506;2023-02-15T04:05:27;101147.00;;;2.88;85.44
19510;BME280;9896;42.486;26.506;2023-02-15T04:07:53;101151.66;;;2.96;85.12
19510;BME280;9896;42.486;26.506;2023-02-15T04:10:19;101150.34;;;2.90;85.21
19510;BME280;9896;42.486;26.506;2023-02-15T04:13:03;101153.81;;;2.91;85.16
19510;BME280;9896;42.486;26.506;2023-02-15T04:15:29;101146.59;;;2.93;85.25
19510;BME280;9896;42.486;26.506;2023-02-15T04:18:13;101149.69;;;2.98;84.94
19510;BME280;9896;42.486;26.506;2023-02-15T04:20:39;101157.00;;;2.73;86.05
19510;BME280;9896;42.486;26.506;2023-02-15T04:23:23;101157.16;;;2.72;85.86
19510;BME280;9896;42.486;26.506;2023-02-15T04:26:07;101162.50;;;2.93;85.41
19510;BME280;9896;42.486;26.506;2023-02-15T04:28:32;101170.50;;;3.02;85.58
19510;BME280;9896;42.486;26.506;2023-02-15T04:30:58;101162.91;;;3.09;84.19
19510;BME280;9896;42.486;26.506;2023-02-15T04:33:24;101156.03;;;3.06;84.38
19510;BME280;9896;42.486;26.506;2023-02-15T04:35:49;101166.94;;;3.24;84.02
19510;BME280;9896;42.486;26.506;2023-02-15T04:38:15;101178.69;;;3.31;83.50
19510;BME280;9896;42.486;26.506;2023-02-15T04:40:40;101182.44;;;3.28;83.38
19510;BME280;9896;42.486;26.506;2023-02-15T04:43:06;101179.06;;;3.26;83.45
19510;BME280;9896;42.486;26.506;2023-02-15T04:45:31;101185.59;;;3.22;83.62
19510;BME280;9896;42.486;26.506;2023-02-15T04:47:57;101188.50;;;3.19;83.43
19510;BME280;9896;42.486;26.506;2023-02-15T04:50:23;101185.38;;;3.25;84.06
19510;BME280;9896;42.486;26.506;2023-02-15T04:52:48;101200.34;;;3.15;84.31
19510;BME280;9896;42.486;26.506;2023-02-15T04:55:14;101200.00;;;3.09;84.55
19510;BME280;9896;42.486;26.506;2023-02-15T04:57:40;101197.09;;;3.12;84.98
19510;BME280;9896;42.486;26.506;2023-02-15T05:00:06;101202.31;;;3.02;85.00
19510;BME280;9896;42.486;26.506;2023-02-15T05:02:31;101200.50;;;3.03;84.85
19510;BME280;9896;42.486;26.506;2023-02-15T05:04:57;101203.72;;;3.06;84.86
19510;BME280;9896;42.486;26.506;2023-02-15T05:07:23;101203.34;;;3.11;84.75
19510;BME280;9896;42.486;26.506;2023-02-15T05:09:49;101203.31;;;3.22;84.04
19510;BME280;9896;42.486;26.506;2023-02-15T05:12:15;101205.38;;;3.18;84.67
19510;BME280;9896;42.486;26.506;2023-02-15T05:14:40;101197.78;;;3.14;84.26
19510;BME280;9896;42.486;26.506;2023-02-15T05:17:06;101206.09;;;3.20;84.64
19510;BME280;9896;42.486;26.506;2023-02-15T05:19:32;101209.81;;;3.18;84.79
19510;BME280;9896;42.486;26.506;2023-02-15T05:21:57;101209.25;;;3.14;84.89
19510;BME280;9896;42.486;26.506;2023-02-15T05:24:23;101211.03;;;3.14;84.83
19510;BME280;9896;42.486;26.506;2023-02-15T05:27:10;101210.22;;;3.13;84.80
19510;BME280;9896;42.486;26.506;2023-02-15T05:29:54;101228.31;;;3.08;85.56
19510;BME280;9896;42.486;26.506;2023-02-15T05:32:20;101219.91;;;3.03;86.06
19510;BME280;9896;42.486;26.506;2023-02-15T05:34:45;101235.84;;;3.24;84.93
19510;BME280;9896;42.486;26.506;2023-02-15T05:37:11;101234.88;;;3.25;84.35
19510;BME280;9896;42.486;26.506;2023-02-15T05:39:37;101229.44;;;3.26;84.56
19510;BME280;9896;42.486;26.506;2023-02-15T05:42:02;101241.34;;;3.32;84.68
19510;BME280;9896;42.486;26.506;2023-02-15T05:44:28;101242.44;;;3.30;84.43
19510;BME280;9896;42.486;26.506;2023-02-15T05:46:53;101235.34;;;3.30;84.32
19510;BME280;9896;42.486;26.506;2023-02-15T05:49:19;101242.66;;;3.38;83.88
19510;BME280;9896;42.486;26.506;2023-02-15T05:51:44;101249.03;;;3.35;83.85
19510;BME280;9896;42.486;26.506;2023-02-15T05:54:10;101247.97;;;3.38;84.27
19510;BME280;9896;42.486;26.506;2023-02-15T05:56:35;101254.91;;;3.50;83.50
19510;BME280;9896;42.486;26.506;2023-02-15T05:59:01;101247.13;;;3.58;83.00
19510;BME280;9896;42.486;26.506;2023-02-15T06:01:27;101251.06;;;3.63;83.27
19510;BME280;9896;42.486;26.506;2023-02-15T06:03:52;101254.84;;;3.61;82.73
19510;BME280;9896;42.486;26.506;2023-02-15T06:06:18;101255.28;;;3.66;83.05
19510;BME280;9896;42.486;26.506;2023-02-15T06:08:43;101253.47;;;3.66;82.26
19510;BME280;9896;42.486;26.506;2023-02-15T06:11:09;101261.03;;;3.71;82.59
19510;BME280;9896;42.486;26.506;2023-02-15T06:13:35;101263.06;;;3.79;81.99
19510;BME280;9896;42.486;26.506;2023-02-15T06:16:01;101270.47;;;3.85;82.03
19510;BME280;9896;42.486;26.506;2023-02-15T06:18:26;101273.03;;;3.86;81.56
19510;BME280;9896;42.486;26.506;2023-02-15T06:20:52;101269.44;;;3.76;82.24
19510;BME280;9896;42.486;26.506;2023-02-15T06:23:18;101261.88;;;3.71;82.21
19510;BME280;9896;42.486;26.506;2023-02-15T06:25:45;101274.69;;;3.87;82.18
19510;BME280;9896;42.486;26.506;2023-02-15T06:28:10;101284.78;;;3.93;81.59
19510;BME280;9896;42.486;26.506;2023-02-15T06:30:36;101293.31;;;3.97;81.86
19510;BME280;9896;42.486;26.506;2023-02-15T06:33:02;101277.97;;;4.00;81.46
19510;BME280;9896;42.486;26.506;2023-02-15T06:35:27;101288.53;;;4.11;80.93
19510;BME280;9896;42.486;26.506;2023-02-15T06:37:53;101289.50;;;4.10;81.41
19510;BME280;9896;42.486;26.506;2023-02-15T06:40:18;101293.03;;;4.20;80.22
19510;BME280;9896;42.486;26.506;2023-02-15T06:42:44;101291.22;;;4.21;79.96
19510;BME280;9896;42.486;26.506;2023-02-15T06:45:10;101284.13;;;4.21;80.14
19510;BME280;9896;42.486;26.506;2023-02-15T06:47:36;101295.63;;;4.32;80.07
19510;BME280;9896;42.486;26.506;2023-02-15T06:50:04;101293.00;;;4.41;79.44
19510;BME280;9896;42.486;26.506;2023-02-15T06:52:29;101291.44;;;4.69;78.43
19510;BME280;9896;42.486;26.506;2023-02-15T06:54:55;101296.75;;;4.69;77.95
19510;BME280;9896;42.486;26.506;2023-02-15T06:57:20;101287.97;;;4.68;77.82
19510;BME280;9896;42.486;26.506;2023-02-15T06:59:46;101286.91;;;4.90;76.70
19510;BME280;9896;42.486;26.506;2023-02-15T07:02:12;101283.16;;;4.93;74.55
19510;BME280;9896;42.486;26.506;2023-02-15T07:04:38;101276.97;;;4.83;75.21
19510;BME280;9896;42.486;26.506;2023-02-15T07:07:03;101290.28;;;4.92;73.61
19510;BME280;9896;42.486;26.506;2023-02-15T07:09:29;101285.84;;;5.12;72.62
19510;BME280;9896;42.486;26.506;2023-02-15T07:11:55;101277.28;;;5.18;72.96
19510;BME280;9896;42.486;26.506;2023-02-15T07:14:39;101270.31;;;5.17;72.08
19510;BME280;9896;42.486;26.506;2023-02-15T07:17:06;101292.00;;;5.12;72.76
19510;BME280;9896;42.486;26.506;2023-02-15T07:19:31;101303.72;;;5.10;72.95
19510;BME280;9896;42.486;26.506;2023-02-15T07:21:56;101297.31;;;5.12;71.46
19510;BME280;9896;42.486;26.506;2023-02-15T07:24:22;101302.88;;;5.00;71.51
19510;BME280;9896;42.486;26.506;2023-02-15T07:26:48;101300.22;;;5.00;71.16
19510;BME280;9896;42.486;26.506;2023-02-15T07:29:13;101300.06;;;5.01;70.33
19510;BME280;9896;42.486;26.506;2023-02-15T07:31:39;101298.25;;;5.02;70.33
19510;BME280;9896;42.486;26.506;2023-02-15T07:34:06;101300.09;;;5.11;70.76
19510;BME280;9896;42.486;26.506;2023-02-15T07:36:31;101291.00;;;5.13;70.75
19510;BME280;9896;42.486;26.506;2023-02-15T07:38:57;101301.22;;;5.08;70.63
19510;BME280;9896;42.486;26.506;2023-02-15T07:41:23;101290.19;;;5.23;70.65
19510;BME280;9896;42.486;26.506;2023-02-15T07:43:48;101291.88;;;5.24;69.67
19510;BME280;9896;42.486;26.506;2023-02-15T07:46:15;101294.41;;;5.25;70.21
19510;BME280;9896;42.486;26.506;2023-02-15T07:48:42;101291.88;;;5.33;69.28
19510;BME280;9896;42.486;26.506;2023-02-15T07:51:09;101295.53;;;5.42;68.94
19510;BME280;9896;42.486;26.506;2023-02-15T07:53:36;101288.94;;;5.27;68.62
19510;BME280;9896;42.486;26.506;2023-02-15T07:56:04;101290.50;;;5.48;68.16
19510;BME280;9896;42.486;26.506;2023-02-15T07:58:31;101293.03;;;5.50;68.43
19510;BME280;9896;42.486;26.506;2023-02-15T08:01:15;101295.53;;;5.51;68.27
19510;BME280;9896;42.486;26.506;2023-02-15T08:03:41;101299.75;;;5.54;67.83
19510;BME280;9896;42.486;26.506;2023-02-15T08:06:07;101296.50;;;5.50;67.37
19510;BME280;9896;42.486;26.506;2023-02-15T08:08:35;101299.44;;;5.67;66.77
19510;BME280;9896;42.486;26.506;2023-02-15T08:11:02;101298.06;;;5.53;66.23
19510;BME280;9896;42.486;26.506;2023-02-15T08:13:47;101287.53;;;5.23;67.46
19510;BME280;9896;42.486;26.506;2023-02-15T08:16:26;101278.47;;;5.54;66.51
19510;BME280;9896;42.486;26.506;2023-02-15T08:18:52;101298.47;;;5.77;65.16
19510;BME280;9896;42.486;26.506;2023-02-15T08:21:19;101310.09;;;5.76;65.85
19510;BME280;9896;42.486;26.506;2023-02-15T08:23:45;101311.53;;;5.90;65.85
19510;BME280;9896;42.486;26.506;2023-02-15T08:26:11;101315.88;;;5.91;64.32
19510;BME280;9896;42.486;26.506;2023-02-15T08:28:36;101304.91;;;5.75;65.89
19510;BME280;9896;42.486;26.506;2023-02-15T08:31:10;101312.38;;;5.90;65.76
19510;BME280;9896;42.486;26.506;2023-02-15T08:33:38;101307.56;;;5.84;65.54
19510;BME280;9896;42.486;26.506;2023-02-15T08:36:06;101308.44;;;5.94;64.88
19510;BME280;9896;42.486;26.506;2023-02-15T08:38:32;101310.22;;;5.84;65.31
19510;BME280;9896;42.486;26.506;2023-02-15T08:41:07;101300.28;;;6.15;64.14
19510;BME280;9896;42.486;26.506;2023-02-15T08:43:33;101288.09;;;5.84;64.79
19510;BME280;9896;42.486;26.506;2023-02-15T08:45:58;101299.13;;;6.18;64.20
19510;BME280;9896;42.486;26.506;2023-02-15T08:48:24;101308.56;;;5.74;66.09
19510;BME280;9896;42.486;26.506;2023-02-15T08:50:50;101300.81;;;6.19;65.14
19510;BME280;9896;42.486;26.506;2023-02-15T08:53:15;101298.28;;;6.17;64.37
19510;BME280;9896;42.486;26.506;2023-02-15T08:55:41;101308.53;;;6.12;64.79
19510;BME280;9896;42.486;26.506;2023-02-15T08:58:07;101307.91;;;6.37;63.71
19510;BME280;9896;42.486;26.506;2023-02-15T09:00:32;101299.72;;;6.48;63.54
19510;BME280;9896;42.486;26.506;2023-02-15T09:02:58;101305.91;;;6.49;61.93
19510;BME280;9896;42.486;26.506;2023-02-15T09:05:23;101307.50;;;6.32;64.37
19510;BME280;9896;42.486;26.506;2023-02-15T09:07:49;101310.22;;;6.60;62.94
19510;BME280;9896;42.486;26.506;2023-02-15T09:10:15;101307.03;;;6.46;63.07
19510;BME280;9896;42.486;26.506;2023-02-15T09:12:41;101289.25;;;6.37;63.76
19510;BME280;9896;42.486;26.506;2023-02-15T09:15:06;101306.63;;;6.41;61.70
19510;BME280;9896;42.486;26.506;2023-02-15T09:17:32;101304.94;;;6.40;62.26
19510;BME280;9896;42.486;26.506;2023-02-15T09:19:58;101312.09;;;6.40;62.51
19510;BME280;9896;42.486;26.506;2023-02-15T09:22:23;101309.78;;;6.18;63.22
19510;BME280;9896;42.486;26.506;2023-02-15T09:24:49;101307.69;;;6.58;63.29
19510;BME280;9896;42.486;26.506;2023-02-15T09:27:14;101304.81;;;6.79;61.52
19510;BME280;9896;42.486;26.506;2023-02-15T09:29:40;101306.59;;;6.51;62.22
19510;BME280;9896;42.486;26.506;2023-02-15T09:32:05;101297.59;;;6.62;63.31
19510;BME280;9896;42.486;26.506;2023-02-15T09:34:31;101294.34;;;6.68;61.34
19510;BME280;9896;42.486;26.506;2023-02-15T09:36:56;101298.94;;;6.75;61.35
19510;BME280;9896;42.486;26.506;2023-02-15T09:39:24;101298.09;;;6.75;61.16
19510;BME280;9896;42.486;26.506;2023-02-15T09:47:54;101288.75;;;7.33;58.63
19510;BME280;9896;42.486;26.506;2023-02-15T09:50:36;101280.28;;;7.38;59.10
19510;BME280;9896;42.486;26.506;2023-02-15T09:59:19;101270.19;;;7.85;56.02
19510;BME280;9896;42.486;26.506;2023-02-15T10:09:56;101255.34;;;7.47;55.58
19510;BME280;9896;42.486;26.506;2023-02-15T10:12:45;101243.56;;;8.19;53.98
19510;BME280;9896;42.486;26.506;2023-02-15T10:28:50;101221.63;;;8.15;53.70
19510;BME280;9896;42.486;26.506;2023-02-15T10:34:16;101216.44;;;8.06;53.39
19510;BME280;9896;42.486;26.506;2023-02-15T10:39:57;101209.38;;;8.72;51.86
19510;BME280;9896;42.486;26.506;2023-02-15T10:50:51;101211.94;;;8.40;51.33
19510;BME280;9896;42.486;26.506;2023-02-15T10:53:44;101205.50;;;7.99;52.77
19510;BME280;9896;42.486;26.506;2023-02-15T10:56:16;101209.00;;;8.25;52.54
19510;BME280;9896;42.486;26.506;2023-02-15T10:59:03;101206.16;;;8.53;52.13
19510;BME280;9896;42.486;26.506;2023-02-15T11:01:40;101200.59;;;8.80;51.41
19510;BME280;9896;42.486;26.506;2023-02-15T11:07:15;101197.50;;;8.59;51.67
19510;BME280;9896;42.486;26.506;2023-02-15T11:09:46;101198.06;;;8.03;53.31
19510;BME280;9896;42.486;26.506;2023-02-15T11:12:17;101191.38;;;8.82;50.95
19510;BME280;9896;42.486;26.506;2023-02-15T11:14:58;101188.75;;;9.15;50.19
19510;BME280;9896;42.486;26.506;2023-02-15T11:17:35;101194.81;;;9.17;50.25
19510;BME280;9896;42.486;26.506;2023-02-15T11:20:41;101192.78;;;9.19;50.46
19510;BME280;9896;42.486;26.506;2023-02-15T11:23:16;101184.03;;;8.93;50.28
19510;BME280;9896;42.486;26.506;2023-02-15T11:25:46;101185.38;;;9.05;49.17
19510;BME280;9896;42.486;26.506;2023-02-15T11:28:21;101180.03;;;8.97;50.04
19510;BME280;9896;42.486;26.506;2023-02-15T11:30:53;101190.31;;;8.59;51.05
19510;BME280;9896;42.486;26.506;2023-02-15T11:33:35;101187.41;;;8.45;52.04
19510;BME280;9896;42.486;26.506;2023-02-15T11:36:09;101173.69;;;8.98;50.40
19510;BME280;9896;42.486;26.506;2023-02-15T11:38:36;101154.66;;;9.33;48.84
19510;BME280;9896;42.486;26.506;2023-02-15T11:41:19;101161.78;;;8.68;50.95
19510;BME280;9896;42.486;26.506;2023-02-15T11:43:53;101164.69;;;9.47;49.43
19510;BME280;9896;42.486;26.506;2023-02-15T11:46:21;101151.13;;;9.65;48.38
19510;BME280;9896;42.486;26.506;2023-02-15T11:48:47;101157.97;;;9.51;48.46
19510;BME280;9896;42.486;26.506;2023-02-15T11:51:17;101155.63;;;9.72;48.09
19510;BME280;9896;42.486;26.506;2023-02-15T11:53:45;101142.63;;;9.45;48.57
19510;BME280;9896;42.486;26.506;2023-02-15T11:56:22;101140.25;;;9.02;49.99
19510;BME280;9896;42.486;26.506;2023-02-15T11:59:08;101145.38;;;8.63;50.77
19510;BME280;9896;42.486;26.506;2023-02-15T12:01:46;101133.69;;;9.77;48.39
19510;BME280;9896;42.486;26.506;2023-02-15T12:06:54;101137.09;;;10.10;47.53
19510;BME280;9896;42.486;26.506;2023-02-15T12:11:54;101130.69;;;9.72;48.31
19510;BME280;9896;42.486;26.506;2023-02-15T12:14:47;101123.44;;;10.36;46.76
19510;BME280;9896;42.486;26.506;2023-02-15T12:17:15;101119.53;;;10.46;45.79
19510;BME280;9896;42.486;26.506;2023-02-15T12:19:41;101120.53;;;10.45;46.11
19510;BME280;9896;42.486;26.506;2023-02-15T12:22:24;101118.72;;;10.46;45.83
19510;BME280;9896;42.486;26.506;2023-02-15T12:24:52;101112.19;;;10.71;45.22
19510;BME280;9896;42.486;26.506;2023-02-15T12:27:22;101114.72;;;10.64;46.11
19510;BME280;9896;42.486;26.506;2023-02-15T12:29:55;101105.56;;;10.59;46.21
19510;BME280;9896;42.486;26.506;2023-02-15T12:35:30;101092.19;;;10.12;47.93
19510;BME280;9896;42.486;26.506;2023-02-15T12:38:01;101098.94;;;10.00;48.04
19510;BME280;9896;42.486;26.506;2023-02-15T12:40:31;101101.50;;;10.63;46.41
19510;BME280;9896;42.486;26.506;2023-02-15T12:42:59;101093.03;;;10.51;46.13
19510;BME280;9896;42.486;26.506;2023-02-15T12:45:31;101103.25;;;10.48;46.42
19510;BME280;9896;42.486;26.506;2023-02-15T12:50:42;101108.56;;;9.78;49.15
19510;BME280;9896;42.486;26.506;2023-02-15T12:53:29;101108.88;;;10.38;47.58
19510;BME280;9896;42.486;26.506;2023-02-15T12:55:58;101107.50;;;9.95;48.00
19510;BME280;9896;42.486;26.506;2023-02-15T12:58:26;101109.00;;;9.98;48.64
19510;BME280;9896;42.486;26.506;2023-02-15T13:01:18;101101.06;;;9.65;49.54
19510;BME280;9896;42.486;26.506;2023-02-15T13:06:21;101099.81;;;9.92;48.35
19510;BME280;9896;42.486;26.506;2023-02-15T13:08:53;101090.84;;;9.69;49.88
19510;BME280;9896;42.486;26.506;2023-02-15T13:11:37;101090.13;;;9.83;48.32
19510;BME280;9896;42.486;26.506;2023-02-15T13:14:16;101089.69;;;10.18;46.70
19510;BME280;9896;42.486;26.506;2023-02-15T13:16:44;101090.94;;;10.61;45.48
19510;BME280;9896;42.486;26.506;2023-02-15T13:19:15;101097.41;;;10.44;45.54
19510;BME280;9896;42.486;26.506;2023-02-15T13:21:45;101099.09;;;10.45;45.43
19510;BME280;9896;42.486;26.506;2023-02-15T13:24:22;101097.22;;;10.07;44.74
19510;BME280;9896;42.486;26.506;2023-02-15T13:26:48;101087.41;;;10.38;43.13
19510;BME280;9896;42.486;26.506;2023-02-15T13:29:22;101092.38;;;10.49;42.89
19510;BME280;9896;42.486;26.506;2023-02-15T13:31:50;101085.16;;;10.50;42.61
19510;BME280;9896;42.486;26.506;2023-02-15T13:34:36;101081.75;;;10.56;42.53
19510;BME280;9896;42.486;26.506;2023-02-15T13:37:41;101087.16;;;10.48;42.42
19510;BME280;9896;42.486;26.506;2023-02-15T13:51:45;101078.44;;;10.99;42.25
19510;BME280;9896;42.486;26.506;2023-02-15T14:03:21;101079.13;;;10.48;42.82
19510;BME280;9896;42.486;26.506;2023-02-15T14:14:36;101093.72;;;10.14;42.52
19510;BME280;9896;42.486;26.506;2023-02-15T14:17:29;101076.06;;;10.59;42.53
19510;BME280;9896;42.486;26.506;2023-02-15T14:23:26;101096.41;;;10.45;43.32
19510;BME280;9896;42.486;26.506;2023-02-15T14:29:11;101087.16;;;10.25;43.50
19510;BME280;9896;42.486;26.506;2023-02-15T14:31:43;101090.47;;;10.81;42.13
19510;BME280;9896;42.486;26.506;2023-02-15T14:34:24;101095.09;;;10.41;42.93
19510;BME280;9896;42.486;26.506;2023-02-15T14:36:51;101089.31;;;10.30;43.25
19510;BME280;9896;42.486;26.506;2023-02-15T14:42:29;101071.16;;;10.85;41.99
19510;BME280;9896;42.486;26.506;2023-02-15T14:45:12;101070.34;;;9.92;43.65
19510;BME280;9896;42.486;26.506;2023-02-15T14:47:44;101086.00;;;10.73;42.62
19510;BME280;9896;42.486;26.506;2023-02-15T14:58:36;101096.09;;;10.01;44.19
19510;BME280;9896;42.486;26.506;2023-02-15T15:01:10;101090.56;;;10.03;44.30
19510;BME280;9896;42.486;26.506;2023-02-15T15:03:36;101093.19;;;10.11;44.31
19510;BME280;9896;42.486;26.506;2023-02-15T15:06:26;101092.34;;;10.27;44.16
19510;BME280;9896;42.486;26.506;2023-02-15T15:08:55;101095.81;;;9.88;44.98
19510;BME280;9896;42.486;26.506;2023-02-15T15:13:55;101100.63;;;10.01;44.52
19510;BME280;9896;42.486;26.506;2023-02-15T15:19:09;101096.06;;;10.09;43.82
19510;BME280;9896;42.486;26.506;2023-02-15T15:21:54;101110.59;;;9.68;45.54
19510;BME280;9896;42.486;26.506;2023-02-15T15:49:21;101118.59;;;8.47;50.06
19510;BME280;9896;42.486;26.506;2023-02-15T15:51:49;101116.56;;;8.40;49.57
19510;BME280;9896;42.486;26.506;2023-02-15T15:54:25;101116.94;;;8.12;50.69
19510;BME280;9896;42.486;26.506;2023-02-15T15:57:01;101110.97;;;8.18;50.59
19510;BME280;9896;42.486;26.506;2023-02-15T15:59:30;101121.00;;;8.24;51.10
19510;BME280;9896;42.486;26.506;2023-02-15T16:02:04;101112.25;;;8.06;50.99
19510;BME280;9896;42.486;26.506;2023-02-15T16:04:32;101126.44;;;8.06;51.76
19510;BME280;9896;42.486;26.506;2023-02-15T16:07:33;101128.13;;;8.15;50.97
19510;BME280;9896;42.486;26.506;2023-02-15T16:10:00;101124.25;;;8.02;52.15
19510;BME280;9896;42.486;26.506;2023-02-15T16:12:34;101124.22;;;7.93;52.77
19510;BME280;9896;42.486;26.506;2023-02-15T16:15:13;101124.09;;;7.69;53.14
19510;BME280;9896;42.486;26.506;2023-02-15T16:17:41;101121.97;;;7.81;53.13